Time;durP1;ratioP1;P1;durP2;ratioP2;P2;SDS_P1;SDS_P2;PMS_P1;PMS_P2;Temp;Humidity;BMP_temperature;BMP_pressure;BME280_temperature;BME280_humidity;BME280_pressure;Samples;Min_cycle;Max_cycle;Signal;HPM_P1;HPM_P2
2022/03/05 00:01:25;;;;;;;;;;;20.70;18.80;;;;;;5167587;27;19927;-48
2022/03/05 00:03:50;;;;;;;;;;;19.50;20.00;;;;;;5162079;27;19927;-49
2022/03/05 00:06:16;;;;;;;;;;;20.50;19.10;;;;;;5166334;27;20414;-56
2022/03/05 00:08:42;;;;;;;;;;;20.90;18.70;;;;;;5143444;27;19923;-49
2022/03/05 00:11:08;;;;;;;;;;;21.20;18.50;;;;;;5160641;27;20837;-49
2022/03/05 00:13:35;;;;;;;;;;;21.10;18.50;;;;;;5148619;27;19922;-48
2022/03/05 00:16:02;;;;;;;;;;;19.60;19.90;;;;;;5162283;27;19982;-49
2022/03/05 00:18:27;;;;;;;;;;;20.40;19.10;;;;;;5162466;27;19930;-50
2022/03/05 00:20:53;;;;;;;;;;;20.90;18.70;;;;;;5148492;27;19936;-49
2022/03/05 00:23:19;;;;;;;;;;;21.20;18.40;;;;;;5162017;27;19930;-48
2022/03/05 00:25:45;;;;;;;;;;;20.90;18.60;;;;;;5162553;27;19923;-55
2022/03/05 00:28:11;;;;;;;;;;;19.50;19.90;;;;;;5165213;27;19926;-47
2022/03/05 00:30:36;;;;;;;;;;;20.40;19.10;;;;;;5160880;27;19930;-49
2022/03/05 00:33:02;;;;;;;;;;;20.90;18.70;;;;;;5168326;27;19926;-52
2022/03/05 00:35:29;;;;;;;;;;;21.10;18.50;;;;;;5165930;27;19923;-52
2022/03/05 00:37:55;;;;;;;;;;;21.30;18.30;;;;;;5165586;27;20391;-54
2022/03/05 00:40:21;;;;;;;;;;;19.60;19.60;;;;;;5170829;27;20259;-52
2022/03/05 00:42:47;;;;;;;;;;;19.90;19.50;;;;;;5165386;27;19922;-48
2022/03/05 00:45:13;;;;;;;;;;;20.70;18.90;;;;;;5164796;27;20037;-50
2022/03/05 00:47:39;;;;;;;;;;;21.00;18.60;;;;;;5121440;27;20407;-48
2022/03/05 00:50:05;;;;;;;;;;;21.20;18.40;;;;;;5164688;27;19969;-48
2022/03/05 00:52:31;;;;;;;;;;;19.80;19.40;;;;;;5170960;27;20433;-49
2022/03/05 00:54:57;;;;;;;;;;;19.90;19.50;;;;;;5165404;27;19934;-48
2022/03/05 00:57:22;;;;;;;;;;;20.60;18.90;;;;;;5164700;27;20289;-51
2022/03/05 00:59:48;;;;;;;;;;;21.00;18.60;;;;;;5170524;27;19923;-51
2022/03/05 01:02:14;;;;;;;;;;;21.20;18.40;;;;;;5164929;27;19983;-53
2022/03/05 01:04:40;;;;;;;;;;;20.90;18.50;;;;;;5163950;27;20425;-54
2022/03/05 01:07:05;;;;;;;;;;;19.50;19.80;;;;;;5169438;27;20165;-54
2022/03/05 01:09:32;;;;;;;;;;;20.40;19.00;;;;;;5164890;27;19966;-55
2022/03/05 01:11:58;;;;;;;;;;;20.80;18.60;;;;;;5170866;27;19927;-54
2022/03/05 01:14:24;;;;;;;;;;;21.10;18.40;;;;;;5146461;27;19975;-50
2022/03/05 01:16:49;;;;;;;;;;;21.20;18.30;;;;;;5164306;27;20433;-51
2022/03/05 01:19:15;;;;;;;;;;;19.40;19.70;;;;;;5151936;27;19923;-50
2022/03/05 01:21:41;;;;;;;;;;;20.30;19.00;;;;;;5164348;27;20392;-49
2022/03/05 01:24:07;;;;;;;;;;;20.80;18.50;;;;;;5163511;27;19982;-49
2022/03/05 01:26:32;;;;;;;;;;;21.10;18.30;;;;;;5168972;27;19927;-51
2022/03/05 01:28:58;;;;;;;;;;;21.30;18.20;;;;;;5164772;27;19927;-51
2022/03/05 01:31:24;;;;;;;;;;;19.90;19.20;;;;;;5170257;27;19945;-55
2022/03/05 01:33:50;;;;;;;;;;;19.80;19.50;;;;;;5164672;27;19934;-49
2022/03/05 01:36:15;;;;;;;;;;;20.60;18.80;;;;;;5164366;27;19923;-51
2022/03/05 01:38:41;;;;;;;;;;;20.90;18.40;;;;;;5169992;27;19968;-55
2022/03/05 01:41:07;;;;;;;;;;;21.20;18.30;;;;;;5163691;27;19997;-53
2022/03/05 01:43:33;;;;;;;;;;;21.20;18.20;;;;;;5163491;27;19927;-49
2022/03/05 01:45:58;;;;;;;;;;;19.40;19.80;;;;;;5168784;27;19937;-53
2022/03/05 01:48:24;;;;;;;;;;;20.30;19.00;;;;;;5164695;27;19930;-48
2022/03/05 01:50:50;;;;;;;;;;;20.80;18.50;;;;;;5168217;27;19975;-58
2022/03/05 01:53:16;;;;;;;;;;;21.10;18.30;;;;;;5166315;27;19930;-53
2022/03/05 01:55:42;;;;;;;;;;;21.10;18.20;;;;;;5164427;27;19991;-49
2022/03/05 01:58:08;;;;;;;;;;;19.40;19.70;;;;;;5169065;27;19922;-48
2022/03/05 02:00:34;;;;;;;;;;;20.30;19.00;;;;;;5162854;27;20084;-50
2022/03/05 02:02:59;;;;;;;;;;;20.90;18.40;;;;;;5163260;27;19988;-49
2022/03/05 02:05:25;;;;;;;;;;;21.10;18.30;;;;;;5169618;27;20387;-52
2022/03/05 02:07:51;;;;;;;;;;;21.30;18.20;;;;;;5144956;27;19923;-47
2022/03/05 02:10:17;;;;;;;;;;;20.80;18.50;;;;;;5165493;27;20326;-57
2022/03/05 02:12:42;;;;;;;;;;;19.60;19.50;;;;;;5168287;27;19929;-50
2022/03/05 02:15:08;;;;;;;;;;;20.60;18.60;;;;;;5163819;27;19930;-46
2022/03/05 02:17:34;;;;;;;;;;;20.90;18.30;;;;;;5168720;27;20519;-49
2022/03/05 02:20:00;;;;;;;;;;;21.20;18.20;;;;;;5162645;27;20435;-52
2022/03/05 02:22:26;;;;;;;;;;;20.80;18.40;;;;;;5163447;27;20009;-49
2022/03/05 02:24:53;;;;;;;;;;;19.40;19.70;;;;;;5169626;27;19929;-48
2022/03/05 02:27:20;;;;;;;;;;;20.40;18.80;;;;;;5164303;27;20001;-52
2022/03/05 02:29:46;;;;;;;;;;;20.80;18.40;;;;;;5163699;27;20392;-49
2022/03/05 02:32:12;;;;;;;;;;;21.10;18.20;;;;;;5169346;27;19922;-48
2022/03/05 02:34:38;;;;;;;;;;;21.30;18.10;;;;;;5163463;27;19930;-51
2022/03/05 02:37:04;;;;;;;;;;;19.60;19.30;;;;;;5168158;27;19994;-50
2022/03/05 02:39:29;;;;;;;;;;;20.20;19.00;;;;;;5162583;27;20340;-49
2022/03/05 02:41:55;;;;;;;;;;;20.80;18.50;;;;;;5163504;27;19989;-50
2022/03/05 02:44:21;;;;;;;;;;;21.10;18.30;;;;;;5169402;27;20341;-53
2022/03/05 02:46:47;;;;;;;;;;;21.30;18.10;;;;;;5163739;27;19923;-48
2022/03/05 02:49:13;;;;;;;;;;;20.80;18.40;;;;;;5163166;27;20198;-49
2022/03/05 02:51:39;;;;;;;;;;;19.60;19.50;;;;;;5168818;27;20373;-49
2022/03/05 02:54:05;;;;;;;;;;;20.50;18.70;;;;;;5163011;27;20287;-54
2022/03/05 02:56:31;;;;;;;;;;;20.90;18.30;;;;;;5167017;27;19923;-49
2022/03/05 02:58:56;;;;;;;;;;;21.10;18.20;;;;;;5162824;27;20011;-50
2022/03/05 03:01:23;;;;;;;;;;;21.30;18.00;;;;;;5163449;27;19922;-47
2022/03/05 03:03:49;;;;;;;;;;;19.70;19.20;;;;;;5168879;27;19923;-49
2022/03/05 03:06:15;;;;;;;;;;;20.10;19.00;;;;;;5163008;27;20013;-50
2022/03/05 03:08:41;;;;;;;;;;;20.70;18.50;;;;;;5163236;27;20168;-48
2022/03/05 03:11:07;;;;;;;;;;;21.10;18.20;;;;;;5168636;27;20027;-49
2022/03/05 03:13:33;;;;;;;;;;;21.20;18.10;;;;;;5162270;27;19923;-53
2022/03/05 03:15:58;;;;;;;;;;;19.70;19.20;;;;;;5166264;27;19931;-53
2022/03/05 03:18:24;;;;;;;;;;;19.80;19.30;;;;;;5164336;27;20317;-49
2022/03/05 03:20:50;;;;;;;;;;;20.60;18.60;;;;;;5144759;27;19926;-49
2022/03/05 03:23:16;;;;;;;;;;;20.90;18.40;;;;;;5168820;27;20951;-51
2022/03/05 03:25:41;;;;;;;;;;;21.20;18.10;;;;;;5162330;27;19962;-48
2022/03/05 03:28:07;;;;;;;;;;;21.30;18.00;;;;;;5162656;27;19926;-47
2022/03/05 03:30:33;;;;;;;;;;;19.50;19.50;;;;;;5167703;27;20374;-48
2022/03/05 03:33:00;;;;;;;;;;;20.00;19.10;;;;;;5142686;27;20309;-51
2022/03/05 03:35:25;;;;;;;;;;;20.60;18.60;;;;;;5164204;27;20017;-53
2022/03/05 03:37:51;;;;;;;;;;;21.00;18.30;;;;;;5166741;27;19923;-50
2022/03/05 03:40:17;;;;;;;;;;;21.20;18.20;;;;;;5163065;27;19923;-49
2022/03/05 03:42:47;;;;;;;;;;;20.70;18.50;;;;;;5168200;27;19929;-49
2022/03/05 03:45:13;;;;;;;;;;;19.70;19.50;;;;;;5162207;27;20040;-47
2022/03/05 03:47:39;;;;;;;;;;;20.60;18.70;;;;;;5162574;27;19938;-52
2022/03/05 03:50:05;;;;;;;;;;;20.80;18.40;;;;;;5167147;27;19927;-51
2022/03/05 03:52:31;;;;;;;;;;;21.20;18.20;;;;;;5142726;27;20282;-52
2022/03/05 03:54:57;;;;;;;;;;;21.00;18.20;;;;;;5162119;27;20270;-48
2022/03/05 03:57:23;;;;;;;;;;;19.60;19.60;;;;;;5149517;27;20354;-47
2022/03/05 03:59:51;;;;;;;;;;;20.40;18.80;;;;;;5143972;27;19930;-49
2022/03/05 04:02:18;;;;;;;;;;;20.90;18.40;;;;;;5167463;27;19971;-50
2022/03/05 04:04:44;;;;;;;;;;;21.20;18.20;;;;;;5162454;27;19922;-51
2022/03/05 04:09:54;;;;;;;;;;;19.50;19.60;;;;;;5166407;27;19922;-48
2022/03/05 04:12:20;;;;;;;;;;;20.60;18.60;;;;;;5161075;27;19929;-52
2022/03/05 04:14:46;;;;;;;;;;;20.90;18.30;;;;;;5162023;27;19981;-52
2022/03/05 04:17:12;;;;;;;;;;;21.20;18.20;;;;;;5167916;27;19923;-53
2022/03/05 04:19:38;;;;;;;;;;;21.30;18.10;;;;;;5162327;27;19936;-47
2022/03/05 04:22:04;;;;;;;;;;;19.30;19.70;;;;;;5161484;27;19923;-49
2022/03/05 04:24:29;;;;;;;;;;;20.10;19.10;;;;;;5167564;27;19927;-48
2022/03/05 04:26:55;;;;;;;;;;;20.70;18.50;;;;;;5161520;27;19976;-49
2022/03/05 04:29:21;;;;;;;;;;;21.10;18.20;;;;;;5165768;27;19981;-49
2022/03/05 04:31:47;;;;;;;;;;;21.30;18.10;;;;;;5143037;27;19930;-48
2022/03/05 04:34:12;;;;;;;;;;;20.10;18.90;;;;;;5162256;27;19949;-49
2022/03/05 04:36:38;;;;;;;;;;;19.90;19.30;;;;;;5167666;27;20047;-46
2022/03/05 04:39:04;;;;;;;;;;;20.70;18.60;;;;;;5161593;27;19929;-47
2022/03/05 04:41:30;;;;;;;;;;;21.00;18.30;;;;;;5161716;27;20425;-49
2022/03/05 04:43:56;;;;;;;;;;;21.20;18.20;;;;;;5167094;27;19936;-50
2022/03/05 04:46:22;;;;;;;;;;;19.50;19.40;;;;;;5160621;27;20249;-48
2022/03/05 04:48:47;;;;;;;;;;;20.00;19.10;;;;;;5166002;27;19923;-50
2022/03/05 04:51:13;;;;;;;;;;;20.70;18.60;;;;;;5161547;27;19942;-49
2022/03/05 04:53:39;;;;;;;;;;;21.00;18.30;;;;;;5161955;27;19923;-49
2022/03/05 04:56:05;;;;;;;;;;;21.20;18.20;;;;;;5147489;27;19930;-54
2022/03/05 04:58:30;;;;;;;;;;;20.00;19.00;;;;;;5161292;27;19926;-47
2022/03/05 05:00:56;;;;;;;;;;;19.70;19.50;;;;;;5161713;27;19931;-45
2022/03/05 05:03:22;;;;;;;;;;;20.50;18.70;;;;;;5166305;27;19923;-46
2022/03/05 05:05:48;;;;;;;;;;;20.90;18.40;;;;;;5160001;27;19985;-52
2022/03/05 05:08:14;;;;;;;;;;;21.20;18.20;;;;;;5144919;27;19936;-58
2022/03/05 05:10:39;;;;;;;;;;;20.80;18.40;;;;;;5162063;27;20400;-52
2022/03/05 05:13:05;;;;;;;;;;;19.30;19.80;;;;;;5161687;27;19926;-47
2022/03/05 05:15:31;;;;;;;;;;;20.40;18.80;;;;;;5166666;27;20305;-47
2022/03/05 05:17:59;;;;;;;;;;;20.90;18.40;;;;;;5160798;27;19933;-47
2022/03/05 05:20:25;;;;;;;;;;;21.20;18.20;;;;;;5164105;27;19923;-54
2022/03/05 05:22:50;;;;;;;;;;;21.30;18.10;;;;;;5169357;27;20370;-51
2022/03/05 05:25:16;;;;;;;;;;;19.30;19.80;;;;;;5163263;27;20316;-51
2022/03/05 05:27:42;;;;;;;;;;;20.10;19.10;;;;;;5166663;27;19926;-58
2022/03/05 05:30:08;;;;;;;;;;;20.70;18.60;;;;;;5168409;27;20380;-53
2022/03/05 05:32:34;;;;;;;;;;;21.00;18.30;;;;;;5164831;27;19975;-52
2022/03/05 05:35:00;;;;;;;;;;;21.30;18.20;;;;;;5169722;27;20380;-49
2022/03/05 05:37:25;;;;;;;;;;;20.10;18.90;;;;;;5164551;27;19923;-48
2022/03/05 05:39:51;;;;;;;;;;;19.90;19.40;;;;;;5164276;27;20319;-47
2022/03/05 05:42:17;;;;;;;;;;;20.60;18.60;;;;;;5150349;27;20047;-47
2022/03/05 05:44:43;;;;;;;;;;;20.90;18.40;;;;;;5163510;27;19982;-51
2022/03/05 05:47:09;;;;;;;;;;;21.20;18.20;;;;;;5164635;27;19959;-53
2022/03/05 05:49:34;;;;;;;;;;;20.90;18.40;;;;;;5151540;27;19971;-51
2022/03/05 05:52:01;;;;;;;;;;;19.70;19.60;;;;;;5164684;27;20014;-56
2022/03/05 05:54:26;;;;;;;;;;;20.50;18.80;;;;;;5169533;27;19923;-52
2022/03/05 05:56:52;;;;;;;;;;;20.90;18.50;;;;;;5164383;27;19971;-51
2022/03/05 05:59:18;;;;;;;;;;;21.20;18.30;;;;;;5163740;27;20397;-49
2022/03/05 06:01:44;;;;;;;;;;;20.70;18.50;;;;;;5168324;27;20293;-50
2022/03/05 06:04:09;;;;;;;;;;;19.50;19.60;;;;;;5145017;27;19927;-51
2022/03/05 06:06:35;;;;;;;;;;;20.50;18.70;;;;;;5164482;27;19927;-50
2022/03/05 06:09:01;;;;;;;;;;;20.90;18.40;;;;;;5169719;27;19934;-52
2022/03/05 06:11:27;;;;;;;;;;;21.10;18.30;;;;;;5143991;27;19960;-51
2022/03/05 06:13:52;;;;;;;;;;;21.00;18.30;;;;;;5169142;27;19926;-51
2022/03/05 06:16:18;;;;;;;;;;;19.40;19.70;;;;;;5163590;27;19927;-46
2022/03/05 06:18:44;;;;;;;;;;;20.30;18.90;;;;;;5162789;27;19926;-49
2022/03/05 06:21:10;;;;;;;;;;;20.80;18.50;;;;;;5168021;27;19922;-47
2022/03/05 06:23:36;;;;;;;;;;;21.00;18.30;;;;;;5163845;27;19930;-46
2022/03/05 06:26:02;;;;;;;;;;;21.30;18.20;;;;;;5164371;27;20153;-49
2022/03/05 06:28:28;;;;;;;;;;;19.40;19.50;;;;;;5169357;27;20397;-49
2022/03/05 06:30:54;;;;;;;;;;;20.10;19.10;;;;;;5162761;27;19925;-54
2022/03/05 06:33:19;;;;;;;;;;;20.80;18.50;;;;;;5169391;27;19929;-54
2022/03/05 06:35:45;;;;;;;;;;;21.00;18.30;;;;;;5163162;27;19935;-51
2022/03/05 06:38:11;;;;;;;;;;;21.20;18.20;;;;;;5143935;27;19935;-55
2022/03/05 06:40:37;;;;;;;;;;;20.00;19.00;;;;;;5168103;27;20321;-50
2022/03/05 06:43:02;;;;;;;;;;;19.90;19.30;;;;;;5163705;27;19923;-48
2022/03/05 06:45:28;;;;;;;;;;;20.60;18.70;;;;;;5163916;27;20318;-48
2022/03/05 06:47:54;;;;;;;;;;;20.90;18.40;;;;;;5148376;27;20234;-46
2022/03/05 06:50:20;;;;;;;;;;;21.20;18.20;;;;;;5162998;27;19927;-51
2022/03/05 06:52:46;;;;;;;;;;;21.10;18.20;;;;;;5168669;27;19971;-53
2022/03/05 06:55:14;;;;;;;;;;;19.10;19.90;;;;;;5163378;27;19927;-52
2022/03/05 06:57:41;;;;;;;;;;;20.10;19.10;;;;;;5143806;27;20816;-49
2022/03/05 07:00:07;;;;;;;;;;;20.70;18.50;;;;;;5149647;27;20400;-48
2022/03/05 07:02:33;;;;;;;;;;;21.00;18.30;;;;;;5163555;27;20493;-51
2022/03/05 07:04:59;;;;;;;;;;;21.20;18.10;;;;;;5144956;27;19923;-53
2022/03/05 07:07:25;;;;;;;;;;;19.50;19.60;;;;;;5168359;27;19923;-48
2022/03/05 07:09:51;;;;;;;;;;;20.20;19.00;;;;;;5162988;27;19923;-50
2022/03/05 07:12:17;;;;;;;;;;;20.70;18.50;;;;;;5164097;27;19970;-56
2022/03/05 07:14:48;;;;;;;;;;;21.00;18.30;;;;;;5166274;27;19926;-52
2022/03/05 07:17:17;;;;;;;;;;;21.30;18.20;;;;;;5162155;27;20405;-53
2022/03/05 07:19:43;;;;;;;;;;;19.80;19.20;;;;;;5168502;27;20005;-49
2022/03/05 07:22:09;;;;;;;;;;;20.00;19.20;;;;;;5144307;27;20288;-52
2022/03/05 07:24:35;;;;;;;;;;;20.70;18.60;;;;;;5163087;27;19926;-51
2022/03/05 07:27:00;;;;;;;;;;;20.90;18.40;;;;;;5167658;27;20308;-47
2022/03/05 07:29:26;;;;;;;;;;;21.20;18.20;;;;;;5162634;27;19934;-51
2022/03/05 07:31:52;;;;;;;;;;;20.60;18.60;;;;;;5143868;27;20265;-55
2022/03/05 07:34:18;;;;;;;;;;;19.70;19.60;;;;;;5166946;27;19929;-56
2022/03/05 07:36:43;;;;;;;;;;;20.50;18.80;;;;;;5161883;27;19971;-53
2022/03/05 07:39:09;;;;;;;;;;;20.90;18.50;;;;;;5148916;27;20305;-56
2022/03/05 07:41:36;;;;;;;;;;;21.20;18.30;;;;;;5144278;27;19971;-50
2022/03/05 07:44:02;;;;;;;;;;;20.80;18.50;;;;;;5161615;27;19955;-49
2022/03/05 07:46:28;;;;;;;;;;;19.40;19.90;;;;;;5149340;27;19926;-49
2022/03/05 07:48:54;;;;;;;;;;;20.40;19.00;;;;;;5162082;27;20381;-47
2022/03/05 07:51:20;;;;;;;;;;;20.90;18.60;;;;;;5161593;27;20097;-47
2022/03/05 07:53:45;;;;;;;;;;;21.20;18.40;;;;;;5166648;27;19934;-49
2022/03/05 07:56:11;;;;;;;;;;;20.60;18.80;;;;;;5162291;27;19922;-49
2022/03/05 07:58:37;;;;;;;;;;;19.70;19.70;;;;;;5166770;27;19940;-57
2022/03/05 08:01:03;;;;;;;;;;;20.60;19.00;;;;;;5164092;27;19929;-47
2022/03/05 08:03:29;;;;;;;;;;;21.00;18.60;;;;;;5161757;27;19984;-48
2022/03/05 08:05:54;;;;;;;;;;;21.20;18.40;;;;;;5167615;27;19930;-50
2022/03/05 08:08:20;;;;;;;;;;;20.90;18.60;;;;;;5161929;27;19929;-48
2022/03/05 08:10:46;;;;;;;;;;;19.40;20.20;;;;;;5160784;27;19923;-54
2022/03/05 08:13:12;;;;;;;;;;;20.40;19.30;;;;;;5166489;27;19931;-54
2022/03/05 08:15:38;;;;;;;;;;;20.80;18.90;;;;;;5162097;27;19927;-53
2022/03/05 08:18:04;;;;;;;;;;;21.20;18.70;;;;;;5164730;27;19927;-56
2022/03/05 08:20:30;;;;;;;;;;;21.20;18.50;;;;;;5165746;27;19929;-51
2022/03/05 08:22:56;;;;;;;;;;;19.30;20.30;;;;;;5161696;27;20013;-49
2022/03/05 08:25:22;;;;;;;;;;;20.20;19.60;;;;;;5167418;27;19929;-49
2022/03/05 08:27:48;;;;;;;;;;;20.80;19.10;;;;;;5161330;27;20489;-50
2022/03/05 08:30:14;;;;;;;;;;;21.10;18.80;;;;;;5142027;27;19934;-51
2022/03/05 08:32:40;;;;;;;;;;;21.10;18.70;;;;;;5166784;27;19930;-48
2022/03/05 08:35:06;;;;;;;;;;;19.40;20.30;;;;;;5162095;27;20418;-55
2022/03/05 08:37:32;;;;;;;;;;;20.30;19.50;;;;;;5162003;27;20009;-52
2022/03/05 08:39:58;;;;;;;;;;;20.90;19.00;;;;;;5166888;27;20010;-51
2022/03/05 08:42:24;;;;;;;;;;;21.20;18.70;;;;;;5161764;27;20853;-52
2022/03/05 08:44:50;;;;;;;;;;;20.80;19.00;;;;;;5167206;27;19923;-52
2022/03/05 08:47:16;;;;;;;;;;;19.30;20.50;;;;;;5160615;27;19979;-52
2022/03/05 08:49:41;;;;;;;;;;;20.30;19.50;;;;;;5160258;27;19966;-54
2022/03/05 08:52:07;;;;;;;;;;;20.90;19.00;;;;;;5167034;27;20323;-54
2022/03/05 08:54:33;;;;;;;;;;;21.20;18.80;;;;;;5164150;27;20268;-51
2022/03/05 08:56:59;;;;;;;;;;;20.60;19.20;;;;;;5165868;27;20187;-52
2022/03/05 08:59:24;;;;;;;;;;;19.70;20.20;;;;;;5170230;27;20366;-54
2022/03/05 09:01:50;;;;;;;;;;;20.60;19.30;;;;;;5165138;27;19923;-53
2022/03/05 09:04:16;;;;;;;;;;;21.00;19.00;;;;;;5170312;27;20018;-50
2022/03/05 09:06:42;;;;;;;;;;;21.20;18.80;;;;;;5164151;27;20391;-55
2022/03/05 09:09:08;;;;;;;;;;;19.50;20.30;;;;;;5143624;27;19962;-52
2022/03/05 09:11:37;;;;;;;;;;;20.30;19.80;;;;;;5170723;27;20308;-49
2022/03/05 09:14:03;;;;;;;;;;;20.80;19.30;;;;;;5165557;27;20912;-49
2022/03/05 09:16:29;;;;;;;;;;;21.10;19.00;;;;;;5165205;27;19923;-48
2022/03/05 09:18:55;;;;;;;;;;;21.00;19.00;;;;;;5170064;27;19929;-48
2022/03/05 09:21:21;;;;;;;;;;;19.20;20.90;;;;;;5164815;27;19922;-46
2022/03/05 09:23:47;;;;;;;;;;;20.30;19.70;;;;;;5168781;27;19926;-55
2022/03/05 09:26:16;;;;;;;;;;;20.90;19.20;;;;;;5146055;27;20408;-49
2022/03/05 09:28:42;;;;;;;;;;;21.10;19.00;;;;;;5164836;27;19923;-52
2022/03/05 09:31:08;;;;;;;;;;;20.40;19.50;;;;;;5152077;27;19922;-49
2022/03/05 09:33:33;;;;;;;;;;;19.80;20.30;;;;;;5146274;27;20018;-51
2022/03/05 09:35:59;;;;;;;;;;;20.60;19.50;;;;;;5164506;27;19965;-49
2022/03/05 09:38:25;;;;;;;;;;;21.00;19.10;;;;;;5169999;27;19990;-55
2022/03/05 09:40:51;;;;;;;;;;;21.20;18.90;;;;;;5164157;27;19934;-50
2022/03/05 09:43:17;;;;;;;;;;;19.50;20.30;;;;;;5128832;27;19923;-54
2022/03/05 09:45:43;;;;;;;;;;;20.30;19.60;;;;;;5168329;27;19930;-52
2022/03/05 09:48:09;;;;;;;;;;;20.90;19.00;;;;;;5164566;27;20293;-50
2022/03/05 09:50:34;;;;;;;;;;;21.20;18.80;;;;;;5151597;27;19923;-53
2022/03/05 09:53:00;;;;;;;;;;;20.80;18.90;;;;;;5164430;27;19933;-48
2022/03/05 09:55:26;;;;;;;;;;;19.30;20.10;;;;;;5163945;27;20261;-46
2022/03/05 09:57:52;;;;;;;;;;;20.50;19.00;;;;;;5169806;27;19930;-50
2022/03/05 10:00:18;;;;;;;;;;;20.90;18.60;;;;;;5163758;27;19924;-49
2022/03/05 10:02:47;;;;;;;;;;;21.30;18.30;;;;;;5163133;27;19979;-54
2022/03/05 10:05:28;;;;;;;;;;;20.60;18.50;;;;;;5168197;27;19929;-47
2022/03/05 10:08:01;;;;;;;;;;;19.70;19.40;;;;;;5164384;27;19922;-51
2022/03/05 10:10:27;;;;;;;;;;;20.70;18.50;;;;;;5164364;27;19929;-50
2022/03/05 10:12:53;;;;;;;;;;;21.10;18.20;;;;;;5169397;27;20021;-52
2022/03/05 10:15:21;;;;;;;;;;;21.20;18.20;;;;;;5164109;27;20856;-51
2022/03/05 10:17:49;;;;;;;;;;;19.50;19.80;;;;;;5169232;27;19927;-46
2022/03/05 10:20:15;;;;;;;;;;;20.40;19.10;;;;;;5162921;27;19922;-49
2022/03/05 10:22:49;;;;;;;;;;;20.90;18.60;;;;;;5162911;27;19929;-48
2022/03/05 10:25:15;;;;;;;;;;;21.20;18.40;;;;;;5151034;27;20433;-50
2022/03/05 10:27:42;;;;;;;;;;;20.30;19.00;;;;;;5145967;27;19930;-48
2022/03/05 10:30:08;;;;;;;;;;;19.90;19.50;;;;;;5145439;27;20363;-46
2022/03/05 10:32:34;;;;;;;;;;;20.80;18.80;;;;;;5168740;27;20071;-49
2022/03/05 10:35:00;;;;;;;;;;;21.20;18.40;;;;;;5145147;27;19927;-48
2022/03/05 10:37:25;;;;;;;;;;;20.60;18.80;;;;;;5165818;27;20299;-52
2022/03/05 10:39:52;;;;;;;;;;;19.60;19.90;;;;;;5165544;27;20301;-51
2022/03/05 10:42:21;;;;;;;;;;;20.60;19.00;;;;;;5162990;27;19922;-50
2022/03/05 10:45:00;;;;;;;;;;;21.00;18.50;;;;;;5150893;27;20266;-52
2022/03/05 10:47:26;;;;;;;;;;;21.00;18.50;;;;;;5164137;27;20394;-50
2022/03/05 10:49:52;;;;;;;;;;;19.60;19.80;;;;;;5144431;27;20968;-50
2022/03/05 10:52:17;;;;;;;;;;;20.50;18.90;;;;;;5148196;27;19923;-49
2022/03/05 10:54:44;;;;;;;;;;;21.00;18.50;;;;;;5163388;27;19927;-56
2022/03/05 10:57:14;;;;;;;;;;;21.00;18.40;;;;;;5162419;27;19949;-49
2022/03/05 10:59:40;;;;;;;;;;;19.50;19.70;;;;;;5167685;27;20290;-49
2022/03/05 11:02:07;;;;;;;;;;;20.40;18.90;;;;;;5163380;27;19926;-47
2022/03/05 11:04:35;;;;;;;;;;;20.90;18.40;;;;;;5165882;27;19929;-54
2022/03/05 11:07:01;;;;;;;;;;;21.20;18.20;;;;;;5168120;27;19939;-47
2022/03/05 11:09:26;;;;;;;;;;;19.50;19.40;;;;;;5162783;27;19927;-48
2022/03/05 11:11:52;;;;;;;;;;;20.30;19.00;;;;;;5168541;27;19940;-48
2022/03/05 11:14:18;;;;;;;;;;;20.80;18.40;;;;;;5143726;27;19923;-51
2022/03/05 11:16:44;;;;;;;;;;;21.20;18.10;;;;;;5161641;27;19942;-52
2022/03/05 11:19:10;;;;;;;;;;;21.00;18.10;;;;;;5147846;27;20370;-47
2022/03/05 11:21:35;;;;;;;;;;;19.30;19.50;;;;;;5163223;27;19958;-48
2022/03/05 11:24:01;;;;;;;;;;;20.30;18.60;;;;;;5163271;27;19937;-48
2022/03/05 11:26:28;;;;;;;;;;;20.90;18.10;;;;;;5149508;27;20389;-51
2022/03/05 11:28:53;;;;;;;;;;;21.30;17.90;;;;;;5144183;27;20024;-50
2022/03/05 11:31:20;;;;;;;;;;;20.70;18.10;;;;;;5168274;27;19922;-49
2022/03/05 11:33:46;;;;;;;;;;;19.70;19.10;;;;;;5161914;27;19982;-49
2022/03/05 11:36:22;;;;;;;;;;;20.70;18.20;;;;;;5161519;27;19922;-49
2022/03/05 11:38:48;;;;;;;;;;;21.00;17.90;;;;;;5168024;27;19923;-50
2022/03/05 11:41:25;;;;;;;;;;;21.00;17.80;;;;;;5144487;27;20084;-50
2022/03/05 14:47:13;;;;;;;;;;;19.80;17.20;;;;;;4188929;27;19925;-48
2022/03/05 14:49:38;;;;;;;;;;;20.90;16.40;;;;;;5140612;27;19927;-49
2022/03/05 14:52:04;;;;;;;;;;;21.30;16.10;;;;;;5147483;27;19930;-49
2022/03/05 14:54:30;;;;;;;;;;;20.20;16.70;;;;;;5122734;27;19934;-48
2022/03/05 14:56:56;;;;;;;;;;;20.00;17.00;;;;;;5143064;27;19934;-51
2022/03/05 14:59:22;;;;;;;;;;;20.80;16.40;;;;;;5148427;27;19968;-49
2022/03/05 15:01:48;;;;;;;;;;;21.30;16.10;;;;;;5143075;27;20293;-49
2022/03/05 15:04:15;;;;;;;;;;;20.60;16.50;;;;;;5143870;27;19923;-50
2022/03/05 15:06:40;;;;;;;;;;;19.80;17.30;;;;;;5141629;27;19927;-50
2022/03/05 15:09:06;;;;;;;;;;;20.80;16.50;;;;;;5142701;27;19923;-49
2022/03/05 15:11:32;;;;;;;;;;;21.30;16.10;;;;;;5148319;27;19923;-47
2022/03/05 15:14:01;;;;;;;;;;;19.90;17.00;;;;;;5142672;27;20373;-47
2022/03/05 15:16:27;;;;;;;;;;;20.10;16.90;;;;;;5142911;27;20090;-46
2022/03/05 15:18:53;;;;;;;;;;;20.80;16.40;;;;;;5148359;27;20435;-51
2022/03/05 15:21:18;;;;;;;;;;;21.30;16.10;;;;;;5142750;27;19982;-46
2022/03/05 15:23:44;;;;;;;;;;;19.60;17.10;;;;;;5142780;27;20430;-48
2022/03/05 15:26:10;;;;;;;;;;;20.20;16.80;;;;;;5141731;27;19923;-46
2022/03/05 15:28:36;;;;;;;;;;;20.90;16.20;;;;;;5142698;27;20354;-49
2022/03/05 15:31:02;;;;;;;;;;;21.30;16.00;;;;;;5147960;27;19923;-49
2022/03/05 15:33:28;;;;;;;;;;;19.50;17.10;;;;;;5123447;27;19931;-47
2022/03/05 15:35:54;;;;;;;;;;;20.30;16.70;;;;;;5142553;27;20208;-48
2022/03/05 15:38:20;;;;;;;;;;;20.90;16.20;;;;;;5148084;27;19923;-48
2022/03/05 15:40:46;;;;;;;;;;;21.30;16.00;;;;;;5139228;27;19927;-51
2022/03/05 15:43:17;;;;;;;;;;;19.90;16.70;;;;;;5144752;27;20018;-53
2022/03/05 15:45:43;;;;;;;;;;;20.00;16.80;;;;;;5127208;27;20428;-46
2022/03/05 15:48:09;;;;;;;;;;;20.90;16.10;;;;;;5122474;27;19923;-48
2022/03/05 15:50:35;;;;;;;;;;;21.20;15.90;;;;;;5129320;27;19934;-49
2022/03/05 15:53:00;;;;;;;;;;;19.20;17.30;;;;;;5123800;27;19931;-48
2022/03/05 15:55:29;;;;;;;;;;;20.30;16.50;;;;;;5142243;27;19931;-47
2022/03/05 15:57:58;;;;;;;;;;;21.00;16.00;;;;;;5147484;27;20371;-50
2022/03/05 16:00:24;;;;;;;;;;;21.30;15.80;;;;;;5117319;27;20282;-47
2022/03/05 16:02:50;;;;;;;;;;;19.40;17.10;;;;;;5140806;27;19924;-48
2022/03/05 16:05:17;;;;;;;;;;;20.10;16.60;;;;;;5146890;27;19931;-49
2022/03/05 16:07:43;;;;;;;;;;;20.90;16.00;;;;;;5141746;27;19922;-50
2022/03/05 16:10:09;;;;;;;;;;;21.30;15.70;;;;;;5147173;27;19930;-47
2022/03/05 16:12:35;;;;;;;;;;;19.70;16.70;;;;;;5141944;27;19966;-50
2022/03/05 16:15:02;;;;;;;;;;;20.10;16.60;;;;;;5141772;27;19930;-47
2022/03/05 16:17:28;;;;;;;;;;;20.90;16.00;;;;;;5145932;27;19923;-49
2022/03/05 16:19:54;;;;;;;;;;;21.20;15.80;;;;;;5138002;27;19977;-47
2022/03/05 16:22:20;;;;;;;;;;;19.50;17.00;;;;;;5141535;27;19927;-47
2022/03/05 16:24:46;;;;;;;;;;;20.10;16.70;;;;;;5128830;27;19927;-47
2022/03/05 16:27:12;;;;;;;;;;;20.90;16.10;;;;;;5141669;27;19930;-51
2022/03/05 16:29:37;;;;;;;;;;;21.30;15.80;;;;;;5146826;27;19923;-50
2022/03/05 16:32:03;;;;;;;;;;;19.70;16.80;;;;;;5141952;27;19924;-47
2022/03/05 16:34:29;;;;;;;;;;;20.20;16.60;;;;;;5123177;27;19927;-45
2022/03/05 16:36:55;;;;;;;;;;;20.90;16.10;;;;;;5142616;27;19998;-48
2022/03/05 16:39:21;;;;;;;;;;;21.30;15.80;;;;;;5121347;27;20318;-47
2022/03/05 16:41:47;;;;;;;;;;;20.20;16.50;;;;;;5141269;27;20311;-48
2022/03/05 16:44:12;;;;;;;;;;;19.90;16.80;;;;;;5146756;27;19926;-47
2022/03/05 16:46:38;;;;;;;;;;;20.80;16.10;;;;;;5141698;27;19952;-47
2022/03/05 16:49:04;;;;;;;;;;;21.20;15.90;;;;;;5145045;27;20412;-52
2022/03/05 16:51:30;;;;;;;;;;;20.50;16.20;;;;;;5143816;27;20022;-45
2022/03/05 16:53:56;;;;;;;;;;;19.90;16.80;;;;;;5137350;27;20008;-45
2022/03/05 16:56:22;;;;;;;;;;;20.80;16.20;;;;;;5142241;27;19931;-49
2022/03/05 16:58:48;;;;;;;;;;;21.20;15.90;;;;;;5140627;27;19934;-45
2022/03/05 17:01:13;;;;;;;;;;;20.50;16.40;;;;;;5141325;27;20303;-46
2022/03/05 17:03:39;;;;;;;;;;;19.90;16.90;;;;;;5146584;27;19923;-45
2022/03/05 17:06:05;;;;;;;;;;;20.80;16.20;;;;;;5141231;27;19979;-47
2022/03/05 17:08:32;;;;;;;;;;;21.20;15.90;;;;;;5142135;27;19930;-54
2022/03/05 17:10:57;;;;;;;;;;;20.70;16.10;;;;;;5106268;27;19924;-46
2022/03/05 17:13:23;;;;;;;;;;;19.70;17.10;;;;;;5138148;27;19967;-48
2022/03/05 17:15:49;;;;;;;;;;;20.70;16.30;;;;;;5146605;27;19923;-46